Time;durP1;ratioP1;P1;durP2;ratioP2;P2;SDS_P1;SDS_P2;PMS_P1;PMS_P2;Temp;Humidity;BMP_temperature;BMP_pressure;BME280_temperature;BME280_humidity;BME280_pressure;Samples;Min_cycle;Max_cycle;Signal;HPM_P1;HPM_P2
2022/12/20 00:02:07;;;;;;;2.28;1.90;;;10.70;77.50;;;;;;5056767;28;20033;-82
2022/12/20 00:04:33;;;;;;;2.80;2.30;;;10.70;77.50;;;;;;5074657;28;20461;-81
2022/12/20 00:06:58;;;;;;;2.88;2.20;;;10.70;77.50;;;;;;5073358;28;20074;-81
2022/12/20 00:09:24;;;;;;;2.15;1.98;;;10.70;77.50;;;;;;5074227;28;20036;-81
2022/12/20 00:11:50;;;;;;;3.47;2.30;;;10.70;77.50;;;;;;5057586;28;20033;-82
2022/12/20 00:14:16;;;;;;;2.75;2.15;;;10.70;77.50;;;;;;5074651;28;20025;-82
2022/12/20 00:16:43;;;;;;;2.40;1.95;;;10.70;77.50;;;;;;5056537;28;20043;-81
2022/12/20 00:19:10;;;;;;;3.13;2.03;;;10.70;77.50;;;;;;5074373;28;20044;-82
2022/12/20 00:21:37;;;;;;;2.22;1.92;;;10.70;77.60;;;;;;5073663;28;20041;-82
2022/12/20 00:24:04;;;;;;;2.70;2.00;;;10.70;77.60;;;;;;5056792;28;20028;-81
2022/12/20 00:26:31;;;;;;;2.42;2.10;;;10.70;77.60;;;;;;5056657;28;20131;-81
2022/12/20 00:28:58;;;;;;;2.33;2.10;;;10.70;77.60;;;;;;5056506;28;20064;-82
2022/12/20 00:31:26;;;;;;;1.98;1.83;;;10.70;77.60;;;;;;5073204;28;20033;-81
2022/12/20 00:33:54;;;;;;;2.28;1.90;;;10.70;77.60;;;;;;5057415;28;20127;-79
2022/12/20 00:36:22;;;;;;;2.80;1.90;;;10.70;77.60;;;;;;5039795;28;20056;-81
2022/12/20 00:38:50;;;;;;;2.17;1.90;;;10.70;77.70;;;;;;5073058;28;20123;-81
2022/12/20 00:41:21;;;;;;;2.05;1.85;;;10.70;77.70;;;;;;5039976;28;20020;-81
2022/12/20 00:43:48;;;;;;;2.25;1.90;;;10.70;77.70;;;;;;5056616;28;20116;-81
2022/12/20 00:46:15;;;;;;;2.83;2.03;;;10.60;77.70;;;;;;5072965;28;20032;-82
2022/12/20 00:48:41;;;;;;;2.20;1.80;;;10.70;77.70;;;;;;5056138;28;20032;-80
2022/12/20 00:51:09;;;;;;;2.10;1.85;;;10.70;77.70;;;;;;5073274;28;20037;-81
2022/12/20 00:53:36;;;;;;;2.08;1.85;;;10.70;77.80;;;;;;5056465;28;20074;-81
2022/12/20 00:56:03;;;;;;;2.10;1.90;;;10.70;77.70;;;;;;5074042;28;20078;-81
2022/12/20 00:58:30;;;;;;;2.20;2.00;;;10.70;77.70;;;;;;5055801;28;20120;-81
2022/12/20 01:00:56;;;;;;;3.08;1.95;;;10.70;77.70;;;;;;5039665;28;20029;-81
2022/12/20 01:03:23;;;;;;;2.08;1.88;;;10.70;77.80;;;;;;5040380;28;20055;-81
2022/12/20 01:05:55;;;;;;;2.35;2.08;;;10.70;77.70;;;;;;5056383;28;20025;-81
2022/12/20 01:08:23;;;;;;;2.40;2.17;;;10.70;77.80;;;;;;5072838;28;20032;-80
2022/12/20 01:11:04;;;;;;;2.33;1.98;;;10.70;77.70;;;;;;5073136;28;20062;-81
2022/12/20 01:13:31;;;;;;;2.08;1.88;;;10.80;77.80;;;;;;5056368;28;20036;-81
2022/12/20 01:16:06;;;;;;;2.10;1.90;;;10.70;77.60;;;;;;5056280;28;20030;-81
2022/12/20 01:18:31;;;;;;;2.15;1.95;;;10.70;77.70;;;;;;5073313;28;20032;-81
2022/12/20 01:21:06;;;;;;;2.13;1.80;;;10.80;77.70;;;;;;5073480;28;20040;-82
2022/12/20 01:23:31;;;;;;;2.05;1.85;;;10.80;77.70;;;;;;5056475;28;20025;-81
2022/12/20 01:25:59;;;;;;;1.80;1.63;;;10.80;77.60;;;;;;5056101;28;20048;-81
2022/12/20 01:28:25;;;;;;;2.22;1.80;;;10.80;77.70;;;;;;5075576;28;20056;-80
2022/12/20 01:30:51;;;;;;;1.90;1.75;;;10.80;77.70;;;;;;5077980;28;20420;-81
2022/12/20 01:33:16;;;;;;;2.30;1.90;;;10.80;77.70;;;;;;5043125;28;20088;-82
2022/12/20 01:35:42;;;;;;;1.75;1.65;;;10.90;77.70;;;;;;5076490;28;20033;-82
2022/12/20 01:38:08;;;;;;;2.13;1.92;;;10.80;77.60;;;;;;5060153;28;20397;-81
2022/12/20 01:40:33;;;;;;;2.10;1.90;;;10.90;77.70;;;;;;5059821;28;20075;-81
2022/12/20 01:42:59;;;;;;;2.28;1.63;;;10.90;77.60;;;;;;5076891;28;20100;-81
2022/12/20 01:45:28;;;;;;;2.05;1.85;;;10.90;77.60;;;;;;5078133;28;20032;-82
2022/12/20 01:47:56;;;;;;;2.10;1.90;;;10.90;77.70;;;;;;5077412;28;20036;-82
2022/12/20 01:50:22;;;;;;;1.90;1.70;;;11.00;77.60;;;;;;5060224;28;20029;-82
2022/12/20 01:52:48;;;;;;;1.98;1.77;;;11.00;78.30;;;;;;5076334;28;20112;-83
2022/12/20 01:55:27;;;;;;;2.28;1.85;;;11.00;77.70;;;;;;5043143;28;20060;-83
2022/12/20 01:57:56;;;;;;;1.98;1.77;;;11.00;77.80;;;;;;5059695;28;20063;-83
2022/12/20 02:00:22;;;;;;;2.33;1.75;;;10.90;77.60;;;;;;5042858;28;20024;-81
2022/12/20 02:02:48;;;;;;;2.75;2.10;;;11.00;77.60;;;;;;5059777;28;20029;-84
2022/12/20 02:05:17;;;;;;;2.17;1.80;;;11.00;77.70;;;;;;5076560;28;20033;-84
2022/12/20 02:07:47;;;;;;;2.47;2.00;;;11.00;77.70;;;;;;5059579;28;20024;-84
2022/12/20 02:10:15;;;;;;;2.38;1.80;;;11.00;77.70;;;;;;5060268;28;20036;-84
2022/12/20 02:12:44;;;;;;;2.08;1.88;;;11.00;77.70;;;;;;5076353;28;20024;-84
2022/12/20 02:15:09;;;;;;;2.47;1.95;;;11.00;77.70;;;;;;5059524;28;20028;-84
2022/12/20 02:17:51;;;;;;;2.13;1.92;;;11.00;77.70;;;;;;5076187;28;20384;-84
2022/12/20 02:20:27;;;;;;;1.98;1.80;;;11.00;77.70;;;;;;5076847;28;20091;-84
2022/12/20 02:23:21;;;;;;;2.58;1.90;;;11.00;77.70;;;;;;5076063;28;20056;-85
2022/12/20 02:25:59;;;;;;;1.92;1.65;;;11.00;77.70;;;;;;5076609;28;20131;-82
2022/12/20 02:29:08;;;;;;;2.10;1.85;;;11.00;77.70;;;;;;5075609;28;20035;-84
2022/12/20 02:32:01;;;;;;;2.25;1.90;;;11.00;77.70;;;;;;5059450;28;20112;-84
2022/12/20 02:34:29;;;;;;;2.03;1.83;;;11.10;77.80;;;;;;5059723;28;20028;-80
2022/12/20 02:36:55;;;;;;;1.70;1.60;;;11.10;77.70;;;;;;5076754;28;20060;-84
2022/12/20 02:39:24;;;;;;;2.17;1.90;;;11.10;77.80;;;;;;5041763;28;20029;-84
2022/12/20 02:41:56;;;;;;;2.20;1.80;;;11.10;77.80;;;;;;5059016;28;20024;-83
2022/12/20 02:47:25;;;;;;;1.75;1.60;;;11.10;77.80;;;;;;5059364;28;20515;-83
2022/12/20 02:49:53;;;;;;;2.20;1.83;;;11.10;77.80;;;;;;5076818;28;20485;-84
2022/12/20 02:52:25;;;;;;;2.55;1.80;;;11.10;77.80;;;;;;5058553;28;20029;-83
2022/12/20 02:54:55;;;;;;;1.67;1.58;;;11.10;77.80;;;;;;5042753;28;20070;-84
2022/12/20 02:58:01;;;;;;;1.73;1.63;;;11.20;77.80;;;;;;5059421;28;20036;-83
2022/12/20 03:00:33;;;;;;;2.53;1.80;;;11.20;77.80;;;;;;5058650;28;20108;-83
2022/12/20 03:05:46;;;;;;;2.40;2.00;;;11.10;77.70;;;;;;5046989;28;20115;-84
2022/12/20 03:08:13;;;;;;;2.42;1.67;;;11.20;77.80;;;;;;5075160;28;20033;-83
2022/12/20 03:10:39;;;;;;;2.38;1.85;;;11.20;77.80;;;;;;5058943;28;20040;-83
2022/12/20 03:13:04;;;;;;;2.60;1.80;;;11.20;77.80;;;;;;5074834;28;20036;-83
2022/12/20 03:15:32;;;;;;;1.90;1.70;;;11.20;77.80;;;;;;5058566;28;20036;-84
2022/12/20 03:18:01;;;;;;;1.88;1.65;;;11.20;77.80;;;;;;5027005;28;20420;-84
2022/12/20 03:20:28;;;;;;;1.90;1.80;;;11.20;77.80;;;;;;5074753;28;20111;-83
2022/12/20 03:22:55;;;;;;;2.10;1.90;;;11.20;77.80;;;;;;5074366;28;20024;-84
2022/12/20 03:25:21;;;;;;;1.92;1.63;;;11.20;77.80;;;;;;5058193;28;20053;-84
2022/12/20 03:27:47;;;;;;;2.42;2.00;;;11.20;77.80;;;;;;5074085;28;20089;-84
2022/12/20 03:30:13;;;;;;;3.17;2.10;;;11.20;77.80;;;;;;5074681;28;20037;-84
2022/12/20 03:32:39;;;;;;;2.03;1.83;;;11.30;77.80;;;;;;5075269;28;20404;-84
2022/12/20 03:35:05;;;;;;;2.72;1.90;;;11.30;77.80;;;;;;5074176;28;20043;-84
2022/12/20 03:37:35;;;;;;;2.00;1.80;;;11.30;77.80;;;;;;5041543;28;20036;-83
2022/12/20 03:40:04;;;;;;;2.20;1.88;;;11.30;77.80;;;;;;5074967;28;20412;-83
2022/12/20 03:42:30;;;;;;;2.33;1.70;;;11.30;77.80;;;;;;5058539;28;20029;-84
2022/12/20 03:44:56;;;;;;;2.22;2.00;;;11.30;77.80;;;;;;5074561;28;20025;-84
2022/12/20 03:47:25;;;;;;;2.10;1.80;;;11.30;77.80;;;;;;5074290;28;20036;-84
2022/12/20 03:49:51;;;;;;;1.65;1.55;;;11.30;77.80;;;;;;5074034;28;20490;-84
2022/12/20 03:52:17;;;;;;;1.95;1.77;;;11.30;77.80;;;;;;5073838;28;20036;-82
2022/12/20 03:54:43;;;;;;;2.25;2.05;;;11.30;77.80;;;;;;5074039;28;20127;-85
2022/12/20 03:57:13;;;;;;;1.60;1.50;;;11.30;77.80;;;;;;5073922;28;20392;-84
2022/12/20 03:59:39;;;;;;;1.80;1.70;;;11.30;77.80;;;;;;5074014;28;20063;-85
2022/12/20 04:02:07;;;;;;;2.35;1.90;;;11.30;77.80;;;;;;5040849;28;20035;-84
2022/12/20 04:04:33;;;;;;;2.63;2.00;;;11.30;77.80;;;;;;5040614;28;20465;-84
2022/12/20 04:06:58;;;;;;;1.80;1.70;;;11.40;77.80;;;;;;5074823;28;20029;-83
2022/12/20 04:09:24;;;;;;;1.98;1.80;;;11.40;77.80;;;;;;5073844;28;20032;-85
2022/12/20 04:11:55;;;;;;;2.38;1.90;;;11.40;77.80;;;;;;5042354;28;20085;-84
2022/12/20 04:14:22;;;;;;;2.42;1.98;;;11.40;77.80;;;;;;5073534;28;20044;-84
2022/12/20 04:16:48;;;;;;;2.47;1.63;;;11.40;77.80;;;;;;5040541;28;20381;-83
2022/12/20 04:19:14;;;;;;;2.13;1.90;;;11.30;77.80;;;;;;5040320;28;20078;-84
2022/12/20 04:21:44;;;;;;;2.15;1.92;;;11.40;77.80;;;;;;5073954;28;20064;-84
2022/12/20 04:24:10;;;;;;;1.80;1.70;;;11.40;77.80;;;;;;5057083;28;20036;-83
2022/12/20 04:26:42;;;;;;;2.13;1.80;;;11.40;77.80;;;;;;5041446;28;20036;-84
2022/12/20 04:29:09;;;;;;;2.10;1.88;;;11.40;77.80;;;;;;5040533;28;20358;-84
2022/12/20 04:31:35;;;;;;;1.98;1.75;;;11.40;77.80;;;;;;5073703;28;20051;-85
2022/12/20 04:34:01;;;;;;;1.92;1.75;;;11.40;77.80;;;;;;5057326;28;20079;-84
2022/12/20 04:36:29;;;;;;;1.67;1.58;;;11.40;77.80;;;;;;5057331;28;20037;-84
2022/12/20 04:38:57;;;;;;;1.92;1.73;;;11.40;77.80;;;;;;5057848;28;20056;-83
2022/12/20 04:41:23;;;;;;;1.80;1.70;;;11.40;77.80;;;;;;5072876;28;20044;-85
2022/12/20 04:43:56;;;;;;;2.20;1.75;;;11.40;77.80;;;;;;5073377;28;20063;-84
2022/12/20 04:46:25;;;;;;;2.05;1.85;;;11.40;77.80;;;;;;5073580;28;20028;-84
2022/12/20 04:48:54;;;;;;;1.90;1.80;;;11.40;77.80;;;;;;5056526;28;20104;-84
2022/12/20 04:51:20;;;;;;;1.95;1.73;;;11.40;77.80;;;;;;5056510;28;20039;-84
2022/12/20 04:53:46;;;;;;;1.85;1.67;;;11.50;77.90;;;;;;5074445;28;20054;-84
2022/12/20 04:56:22;;;;;;;1.80;1.60;;;11.40;77.80;;;;;;5041592;28;20044;-84
2022/12/20 04:58:49;;;;;;;1.85;1.75;;;11.40;77.80;;;;;;5074228;28;20032;-85
2022/12/20 05:01:15;;;;;;;2.47;1.48;;;11.50;77.90;;;;;;5073441;28;20028;-82
2022/12/20 05:03:48;;;;;;;2.40;1.83;;;11.50;77.90;;;;;;5077891;28;20028;-84
2022/12/20 05:06:15;;;;;;;1.90;1.60;;;11.50;77.90;;;;;;5061001;28;20021;-83
2022/12/20 05:08:41;;;;;;;2.00;1.73;;;11.50;77.90;;;;;;5060766;28;20043;-83
2022/12/20 05:11:08;;;;;;;1.80;1.70;;;11.50;77.80;;;;;;5077136;28;20029;-82
2022/12/20 05:13:35;;;;;;;2.42;1.85;;;11.50;77.90;;;;;;5077544;28;20499;-82
2022/12/20 05:16:01;;;;;;;2.08;1.90;;;11.50;77.90;;;;;;5077528;28;20032;-82
2022/12/20 05:18:31;;;;;;;2.25;1.70;;;11.50;77.90;;;;;;5076701;28;20037;-82
2022/12/20 05:26:46;;;;;;;1.60;1.50;;;11.50;77.80;;;;;;5060174;28;20047;-84
2022/12/20 05:29:12;;;;;;;2.00;1.65;;;11.50;77.80;;;;;;5060125;28;20044;-83
2022/12/20 05:31:38;;;;;;;1.75;1.60;;;11.50;77.80;;;;;;5076749;28;20035;-85
2022/12/20 05:34:04;;;;;;;1.85;1.50;;;11.50;77.90;;;;;;5061040;28;20076;-86
2022/12/20 05:36:33;;;;;;;1.50;1.40;;;11.50;77.80;;;;;;5076619;28;20090;-85
2022/12/20 05:39:01;;;;;;;1.70;1.60;;;11.60;77.90;;;;;;5060236;28;20032;-84
2022/12/20 05:41:28;;;;;;;1.85;1.70;;;11.60;77.90;;;;;;5059817;28;20506;-83
2022/12/20 05:43:53;;;;;;;2.55;1.70;;;11.60;77.90;;;;;;5076482;28;20029;-82
2022/12/20 05:46:19;;;;;;;1.65;1.55;;;11.60;77.90;;;;;;5043474;28;20020;-84
2022/12/20 05:48:56;;;;;;;1.88;1.77;;;11.60;77.90;;;;;;5076788;28;20090;-83
2022/12/20 05:51:22;;;;;;;1.75;1.65;;;11.60;77.80;;;;;;5077023;28;20051;-83
2022/12/20 05:54:00;;;;;;;2.15;1.80;;;11.60;77.80;;;;;;5076661;28;20033;-81
2022/12/20 05:56:48;;;;;;;1.95;1.65;;;11.60;77.80;;;;;;5076526;28;20032;-82
2022/12/20 05:59:20;;;;;;;1.77;1.67;;;11.70;77.80;;;;;;5076299;28;20085;-85
2022/12/20 06:01:46;;;;;;;2.05;1.70;;;11.60;77.80;;;;;;5077198;28;20025;-85
2022/12/20 06:04:11;;;;;;;1.85;1.63;;;11.60;77.80;;;;;;5042567;28;20559;-81
2022/12/20 06:06:37;;;;;;;2.28;1.83;;;11.70;77.90;;;;;;5075878;28;20098;-81
2022/12/20 06:09:03;;;;;;;1.88;1.75;;;11.70;77.90;;;;;;5059252;28;20122;-85
2022/12/20 06:11:37;;;;;;;1.80;1.70;;;11.70;77.90;;;;;;5076329;28;20040;-84
2022/12/20 06:14:07;;;;;;;3.05;1.85;;;11.70;77.80;;;;;;5058483;28;20032;-84
2022/12/20 06:16:35;;;;;;;2.13;1.73;;;11.70;77.80;;;;;;5059769;28;20078;-85
2022/12/20 06:19:02;;;;;;;1.73;1.63;;;11.70;77.80;;;;;;5076845;28;20028;-83
2022/12/20 06:21:28;;;;;;;2.17;1.90;;;11.70;77.80;;;;;;5042401;28;20423;-82
2022/12/20 06:23:55;;;;;;;1.75;1.60;;;11.70;77.80;;;;;;5076089;28;20029;-82
2022/12/20 06:26:24;;;;;;;1.60;1.50;;;11.70;77.80;;;;;;5041977;28;20135;-82
2022/12/20 06:28:55;;;;;;;2.22;1.92;;;11.70;77.80;;;;;;5058847;28;20086;-82
2022/12/20 06:31:34;;;;;;;2.75;1.80;;;11.70;77.80;;;;;;5060401;28;20107;-81
2022/12/20 06:33:59;;;;;;;2.05;1.60;;;11.80;77.80;;;;;;5042397;28;20346;-81
2022/12/20 06:36:31;;;;;;;2.10;1.63;;;11.80;77.80;;;;;;5075763;28;20025;-82
2022/12/20 06:38:56;;;;;;;1.88;1.67;;;11.80;77.80;;;;;;5075375;28;20032;-82
2022/12/20 06:41:22;;;;;;;1.88;1.70;;;11.80;77.90;;;;;;5074825;28;20409;-82
2022/12/20 06:43:49;;;;;;;2.28;1.90;;;11.80;77.90;;;;;;5075395;28;20115;-80
2022/12/20 06:46:14;;;;;;;1.98;1.80;;;11.80;77.80;;;;;;5075379;28;20551;-82
2022/12/20 06:48:40;;;;;;;2.03;1.80;;;11.80;77.80;;;;;;5075273;28;20067;-82
2022/12/20 06:51:08;;;;;;;2.10;1.80;;;11.80;77.80;;;;;;5058430;28;20036;-82
2022/12/20 06:53:34;;;;;;;2.10;1.90;;;11.80;77.80;;;;;;5076137;28;20048;-81
2022/12/20 06:55:59;;;;;;;1.85;1.65;;;11.80;77.80;;;;;;5058858;28;20032;-82
2022/12/20 06:58:25;;;;;;;1.83;1.70;;;11.80;77.80;;;;;;5059020;28;20454;-83
2022/12/20 07:00:51;;;;;;;1.92;1.73;;;11.80;77.90;;;;;;5042492;28;20039;-84
2022/12/20 07:03:16;;;;;;;1.75;1.65;;;11.80;77.80;;;;;;5075782;28;20040;-82
2022/12/20 07:05:42;;;;;;;3.08;1.67;;;11.80;77.80;;;;;;5058243;28;20028;-83
2022/12/20 07:08:08;;;;;;;3.08;1.70;;;11.80;77.80;;;;;;5058980;28;20033;-83
2022/12/20 07:10:35;;;;;;;2.17;1.80;;;11.80;77.80;;;;;;5058465;28;20040;-81
2022/12/20 07:13:01;;;;;;;1.75;1.65;;;11.80;77.80;;;;;;5074650;28;20465;-82
2022/12/20 07:15:27;;;;;;;1.95;1.60;;;11.80;77.80;;;;;;5075243;28;20028;-82
2022/12/20 07:17:52;;;;;;;2.13;1.63;;;11.90;77.90;;;;;;5058197;28;20036;-82
2022/12/20 07:20:18;;;;;;;2.13;1.73;;;11.90;77.90;;;;;;5041392;28;20416;-82
2022/12/20 07:22:46;;;;;;;1.50;1.40;;;11.90;77.90;;;;;;5075166;28;20056;-81
2022/12/20 07:25:12;;;;;;;2.03;1.77;;;11.90;77.90;;;;;;5074343;28;20183;-82
2022/12/20 07:27:38;;;;;;;2.20;1.80;;;11.90;77.90;;;;;;5041104;28;20131;-81
2022/12/20 07:30:04;;;;;;;2.20;1.58;;;11.90;77.90;;;;;;5058797;28;20390;-83
2022/12/20 07:32:31;;;;;;;1.80;1.67;;;11.90;77.90;;;;;;5075654;28;20020;-82
2022/12/20 07:34:56;;;;;;;1.75;1.52;;;11.90;77.90;;;;;;5057699;28;20534;-83
2022/12/20 07:37:23;;;;;;;2.40;1.70;;;11.90;77.90;;;;;;5074406;28;20044;-80
2022/12/20 07:39:48;;;;;;;2.33;1.83;;;11.90;77.90;;;;;;5074402;28;20064;-82
2022/12/20 07:42:14;;;;;;;2.25;1.70;;;11.90;77.90;;;;;;5057606;28;20500;-81
2022/12/20 07:44:41;;;;;;;1.73;1.50;;;11.90;77.90;;;;;;5073999;28;20063;-81
2022/12/20 07:47:08;;;;;;;2.42;1.73;;;11.90;77.90;;;;;;5058310;28;20086;-82
2022/12/20 07:49:34;;;;;;;1.70;1.60;;;11.90;77.90;;;;;;5074011;28;20067;-82
2022/12/20 07:52:03;;;;;;;1.85;1.63;;;11.90;77.90;;;;;;5057293;28;20040;-82
2022/12/20 07:54:50;;;;;;;3.17;1.88;;;11.90;77.90;;;;;;5057193;28;20037;-82
2022/12/20 07:57:22;;;;;;;1.73;1.55;;;11.90;77.90;;;;;;5057803;28;20036;-82
2022/12/20 07:59:51;;;;;;;2.05;1.60;;;11.90;77.90;;;;;;5057375;28;20469;-82
2022/12/20 08:02:24;;;;;;;1.60;1.40;;;11.90;77.90;;;;;;5040419;28;20086;-82
2022/12/20 08:04:51;;;;;;;1.55;1.45;;;11.90;77.90;;;;;;5074948;28;20048;-83
2022/12/20 08:07:16;;;;;;;2.08;1.60;;;11.90;77.90;;;;;;5073588;28;20024;-82
2022/12/20 08:09:44;;;;;;;2.05;1.80;;;11.90;77.90;;;;;;5073707;28;20044;-83
2022/12/20 08:12:13;;;;;;;1.95;1.70;;;11.90;78.00;;;;;;5057722;28;20029;-82
2022/12/20 08:14:40;;;;;;;2.53;1.88;;;11.90;78.00;;;;;;5057066;28;20024;-83
2022/12/20 08:17:06;;;;;;;1.92;1.60;;;11.90;78.00;;;;;;5074439;28;20519;-83
2022/12/20 08:19:31;;;;;;;1.70;1.60;;;12.00;78.00;;;;;;5057196;28;20024;-83
2022/12/20 08:21:57;;;;;;;1.63;1.52;;;12.00;78.00;;;;;;5041070;28;20033;-83
2022/12/20 08:24:23;;;;;;;2.67;1.90;;;12.00;78.00;;;;;;5057351;28;20021;-82
2022/12/20 08:26:49;;;;;;;1.80;1.70;;;12.00;78.00;;;;;;5074247;28;20115;-82
2022/12/20 08:29:15;;;;;;;1.83;1.70;;;12.00;78.00;;;;;;5057266;28;20083;-83
2022/12/20 08:31:41;;;;;;;2.28;1.60;;;12.00;78.00;;;;;;5074919;28;20036;-82
2022/12/20 08:34:08;;;;;;;1.92;1.73;;;12.00;78.00;;;;;;5074256;28;20024;-82
2022/12/20 08:36:34;;;;;;;1.77;1.48;;;12.00;78.00;;;;;;5056449;28;20555;-81
2022/12/20 08:39:06;;;;;;;1.88;1.55;;;12.00;78.00;;;;;;5073380;28;20130;-83
2022/12/20 08:41:36;;;;;;;2.13;1.63;;;12.00;78.00;;;;;;5040331;28;20028;-82
2022/12/20 08:44:05;;;;;;;2.05;1.73;;;12.00;78.00;;;;;;5056685;28;20055;-81
2022/12/20 08:46:31;;;;;;;1.83;1.67;;;12.00;78.00;;;;;;5073246;28;20123;-82
2022/12/20 08:48:56;;;;;;;1.73;1.63;;;12.00;78.00;;;;;;5073225;28;20098;-82
2022/12/20 08:51:22;;;;;;;2.30;1.52;;;12.00;77.90;;;;;;5073182;28;20040;-82
2022/12/20 08:53:48;;;;;;;2.28;1.75;;;12.00;78.00;;;;;;5057017;28;20453;-82
2022/12/20 08:56:16;;;;;;;1.90;1.50;;;12.00;77.90;;;;;;5072898;28;20547;-82
2022/12/20 08:58:43;;;;;;;1.83;1.65;;;12.00;78.00;;;;;;5056475;28;20031;-83
2022/12/20 09:01:11;;;;;;;2.28;1.58;;;12.00;78.00;;;;;;5056851;28;20029;-82
2022/12/20 09:03:38;;;;;;;1.83;1.60;;;12.10;78.00;;;;;;5056881;28;20032;-81
2022/12/20 09:06:13;;;;;;;1.90;1.70;;;12.10;78.00;;;;;;5056266;28;20029;-82
2022/12/20 09:08:39;;;;;;;;;;;12.10;78.00;;;;;;5057019;28;20082;-82
2022/12/20 09:11:11;;;;;;;1.88;1.67;;;12.00;77.90;;;;;;5056064;28;19912;-82
2022/12/20 09:13:37;;;;;;;1.80;1.67;;;12.10;77.90;;;;;;5073691;28;20032;-81
2022/12/20 09:16:05;;;;;;;1.73;1.58;;;12.10;77.90;;;;;;5072797;28;20036;-83
2022/12/20 09:18:31;;;;;;;1.75;1.65;;;12.10;78.00;;;;;;5056858;28;20081;-83
2022/12/20 09:21:05;;;;;;;1.88;1.60;;;12.10;78.00;;;;;;5056544;28;20036;-83
2022/12/20 09:23:32;;;;;;;1.73;1.63;;;12.10;78.00;;;;;;5056481;28;20040;-83
2022/12/20 09:26:03;;;;;;;2.00;1.67;;;12.10;78.00;;;;;;5056100;28;20055;-83
2022/12/20 09:28:29;;;;;;;2.40;1.80;;;12.10;78.00;;;;;;5056033;28;20036;-82
2022/12/20 09:31:00;;;;;;;1.60;1.50;;;12.10;78.00;;;;;;5056687;28;20044;-83
2022/12/20 09:33:27;;;;;;;2.00;1.80;;;12.10;78.00;;;;;;5056053;28;20111;-83
2022/12/20 09:35:53;;;;;;;1.60;1.50;;;12.10;78.00;;;;;;5073798;28;20035;-82
2022/12/20 09:38:19;;;;;;;2.03;1.70;;;12.10;78.00;;;;;;5056325;28;20067;-79
2022/12/20 09:40:51;;;;;;;2.00;1.80;;;12.10;78.00;;;;;;5074123;28;20029;-82
2022/12/20 09:43:19;;;;;;;1.92;1.63;;;12.10;78.00;;;;;;5072579;28;20058;-82
2022/12/20 09:45:47;;;;;;;2.13;1.65;;;12.10;78.00;;;;;;5072489;28;20032;-82
2022/12/20 09:48:24;;;;;;;1.77;1.67;;;12.10;78.00;;;;;;5073410;28;20119;-82
2022/12/20 09:51:09;;;;;;;1.80;1.70;;;12.20;78.00;;;;;;5059609;28;20036;-82
2022/12/20 09:53:54;;;;;;;1.67;1.40;;;12.20;78.00;;;;;;5059980;28;20017;-82
2022/12/20 09:56:31;;;;;;;2.17;1.60;;;12.20;78.00;;;;;;5077562;28;20025;-81
2022/12/20 09:59:04;;;;;;;1.88;1.73;;;12.20;78.00;;;;;;5043583;28;20086;-81
2022/12/20 10:01:33;;;;;;;1.60;1.50;;;12.20;78.00;;;;;;5076173;28;20025;-80
2022/12/20 10:04:05;;;;;;;1.90;1.52;;;12.20;78.00;;;;;;5059167;28;20086;-82
2022/12/20 10:06:50;;;;;;;1.67;1.58;;;12.20;78.00;;;;;;5059127;28;20103;-82
2022/12/20 10:09:18;;;;;;;2.57;1.60;;;12.20;78.10;;;;;;5077018;28;20139;-81
2022/12/20 10:12:22;;;;;;;1.75;1.50;;;12.20;78.00;;;;;;5076877;28;20266;-82
2022/12/20 10:15:20;;;;;;;1.70;1.60;;;12.20;78.10;;;;;;5063335;28;20043;-82
2022/12/20 10:18:01;;;;;;;1.55;1.45;;;12.20;78.00;;;;;;5028605;28;20045;-83
2022/12/20 10:20:50;;;;;;;2.85;1.95;;;12.20;78.00;;;;;;5059871;28;20024;-83
2022/12/20 10:23:30;;;;;;;1.50;1.40;;;12.20;78.00;;;;;;5059148;28;20473;-82
2022/12/20 10:25:57;;;;;;;1.55;1.42;;;12.20;78.00;;;;;;5077250;28;20040;-82
2022/12/20 10:28:29;;;;;;;1.60;1.50;;;12.20;78.00;;;;;;5059101;28;20093;-82
2022/12/20 10:31:06;;;;;;;1.55;1.45;;;12.20;78.00;;;;;;5076535;28;20031;-83
2022/12/20 10:33:32;;;;;;;1.58;1.48;;;12.20;78.00;;;;;;5076258;28;20025;-82
2022/12/20 10:36:21;;;;;;;2.33;1.58;;;12.20;78.00;;;;;;5059206;28;20032;-82
2022/12/20 10:38:53;;;;;;;1.50;1.40;;;12.20;78.00;;;;;;5058742;28;20138;-82
2022/12/20 10:41:22;;;;;;;1.65;1.55;;;12.20;78.00;;;;;;5076085;28;20024;-82
2022/12/20 10:44:01;;;;;;;1.52;1.42;;;12.20;78.00;;;;;;5075563;28;20086;-81
2022/12/20 10:46:40;;;;;;;1.80;1.70;;;12.30;78.00;;;;;;5059395;28;20035;-82
2022/12/20 10:49:22;;;;;;;2.35;1.55;;;12.30;78.10;;;;;;5060013;28;20115;-82
2022/12/20 10:51:58;;;;;;;2.17;1.55;;;12.30;78.10;;;;;;5077150;28;20459;-82
2022/12/20 10:54:45;;;;;;;1.73;1.63;;;12.30;78.00;;;;;;5059692;28;20036;-82
2022/12/20 10:57:30;;;;;;;1.40;1.27;;;12.30;78.10;;;;;;5077406;28;20032;-82
2022/12/20 10:59:59;;;;;;;1.55;1.45;;;12.30;78.00;;;;;;5076620;28;20056;-82
2022/12/20 11:02:31;;;;;;;2.08;1.80;;;12.30;78.00;;;;;;5058989;28;20082;-83
2022/12/20 11:05:01;;;;;;;1.70;1.58;;;12.30;78.00;;;;;;5059892;28;20028;-82
2022/12/20 11:07:30;;;;;;;1.75;1.45;;;12.30;78.00;;;;;;5077644;28;20039;-82
2022/12/20 11:10:02;;;;;;;1.67;1.58;;;12.30;78.00;;;;;;5076110;28;20245;-82
2022/12/20 11:12:28;;;;;;;1.58;1.45;;;12.30;78.00;;;;;;5058899;28;20037;-82
2022/12/20 11:15:25;;;;;;;1.30;1.20;;;12.30;78.00;;;;;;5076272;28;20105;-83
2022/12/20 11:18:04;;;;;;;2.42;1.70;;;12.30;78.00;;;;;;5059055;28;20169;-81
2022/12/20 11:21:04;;;;;;;1.50;1.40;;;12.30;78.00;;;;;;5042370;28;20115;-83
2022/12/20 11:23:32;;;;;;;1.52;1.42;;;12.40;78.10;;;;;;5077323;28;20075;-83
2022/12/20 11:26:26;;;;;;;1.75;1.50;;;12.30;77.90;;;;;;5072122;28;20060;-83
2022/12/20 11:28:58;;;;;;;1.70;1.60;;;12.30;78.00;;;;;;5056233;28;20040;-82
2022/12/20 11:32:01;;;;;;;1.50;1.38;;;12.30;78.00;;;;;;5039162;28;20029;-83
2022/12/20 11:34:45;;;;;;;1.70;1.60;;;12.30;78.00;;;;;;5057741;28;20033;-82
2022/12/20 11:37:14;;;;;;;1.60;1.50;;;12.40;78.10;;;;;;5055853;28;20037;-82
2022/12/20 11:40:04;;;;;;;1.60;1.40;;;12.40;78.00;;;;;;5056415;28;20025;-81
2022/12/20 11:43:00;;;;;;;1.85;1.50;;;12.40;78.00;;;;;;5057045;28;20083;-82
2022/12/20 11:45:54;;;;;;;1.52;1.42;;;12.40;78.00;;;;;;5056478;28;20499;-82
2022/12/20 11:48:38;;;;;;;1.75;1.50;;;12.40;78.00;;;;;;5055225;28;20039;-83
2022/12/20 11:51:20;;;;;;;1.48;1.38;;;12.40;78.00;;;;;;5055492;28;20477;-83
2022/12/20 11:54:02;;;;;;;2.05;1.60;;;12.40;78.00;;;;;;5055097;28;20457;-83
2022/12/20 11:56:41;;;;;;;2.55;1.63;;;12.40;78.00;;;;;;5038286;28;20021;-82
2022/12/20 11:59:33;;;;;;;1.85;1.58;;;12.40;78.00;;;;;;5055371;28;20035;-82
2022/12/20 12:02:16;;;;;;;2.47;1.80;;;12.40;78.00;;;;;;5055079;28;20100;-83
2022/12/20 12:04:54;;;;;;;1.60;1.50;;;12.40;78.00;;;;;;5055099;28;20032;-84
2022/12/20 12:07:28;;;;;;;2.03;1.70;;;12.40;78.00;;;;;;5056206;28;20036;-84
2022/12/20 12:10:18;;;;;;;1.65;1.55;;;12.40;78.60;;;;;;5056375;28;20057;-83
2022/12/20 12:13:01;;;;;;;1.73;1.63;;;12.50;78.10;;;;;;5055946;28;20055;-81
2022/12/20 12:15:30;;;;;;;2.25;1.55;;;12.50;78.10;;;;;;5055804;28;20051;-83
2022/12/20 12:18:08;;;;;;;1.77;1.67;;;12.50;78.00;;;;;;5071725;28;20059;-84
2022/12/20 12:20:58;;;;;;;1.90;1.50;;;12.50;78.00;;;;;;5055625;28;20036;-83
2022/12/20 12:23:36;;;;;;;1.80;1.50;;;12.50;78.10;;;;;;5038591;28;20040;-83
2022/12/20 12:26:09;;;;;;;1.65;1.55;;;12.50;78.00;;;;;;5051763;28;20053;-83
2022/12/20 12:28:35;;;;;;;1.50;1.40;;;12.50;78.00;;;;;;5035946;28;20097;-83
2022/12/20 12:31:10;;;;;;;1.60;1.50;;;12.50;78.00;;;;;;5035070;28;20126;-83
2022/12/20 12:34:02;;;;;;;1.50;1.40;;;12.60;78.10;;;;;;5051921;28;20410;-84
2022/12/20 12:36:49;;;;;;;2.25;1.50;;;12.50;78.00;;;;;;5035761;28;20034;-84
2022/12/20 12:39:46;;;;;;;1.70;1.60;;;12.50;78.00;;;;;;5054764;28;20025;-83
2022/12/20 12:42:44;;;;;;;1.98;1.65;;;12.50;78.00;;;;;;5052994;28;20079;-83
2022/12/20 12:45:19;;;;;;;1.67;1.58;;;12.50;77.90;;;;;;4986472;28;20088;-83
2022/12/20 12:48:01;;;;;;;1.60;1.50;;;12.50;77.90;;;;;;5035524;28;20162;-83
2022/12/20 12:50:30;;;;;;;1.65;1.45;;;12.50;78.00;;;;;;5051303;28;20048;-83
2022/12/20 12:53:13;;;;;;;2.25;1.60;;;12.60;78.00;;;;;;5035202;28;20040;-82
2022/12/20 12:55:50;;;;;;;1.67;1.50;;;12.60;78.00;;;;;;5050537;28;20029;-83
2022/12/20 12:58:22;;;;;;;1.70;1.55;;;12.60;78.00;;;;;;5034918;28;20033;-83
2022/12/20 13:00:50;;;;;;;1.70;1.60;;;12.60;78.00;;;;;;5035768;28;20075;-83
2022/12/20 13:03:34;;;;;;;1.58;1.48;;;12.60;78.00;;;;;;5051094;28;20109;-83
2022/12/20 13:06:22;;;;;;;1.55;1.33;;;12.60;78.00;;;;;;5035530;28;20025;-83
2022/12/20 13:08:55;;;;;;;1.50;1.40;;;12.60;78.00;;;;;;5050498;28;20104;-83
2022/12/20 13:11:30;;;;;;;1.90;1.55;;;12.60;77.90;;;;;;5051462;28;20116;-83
2022/12/20 13:14:24;;;;;;;1.90;1.55;;;12.60;78.00;;;;;;5034143;28;20032;-83
2022/12/20 13:16:52;;;;;;;2.85;1.83;;;12.60;78.00;;;;;;5035785;28;20075;-82
2022/12/20 13:19:24;;;;;;;1.65;1.55;;;12.60;78.00;;;;;;5034486;28;20029;-83
2022/12/20 13:22:05;;;;;;;1.58;1.48;;;12.60;78.00;;;;;;5050988;28;20466;-83